sensor_id;sensor_type;location;lat;lon;timestamp;pressure;altitude;pressure_sealevel;temperature;humidity
47280;BME280;34064;44.942;0.008;2022-07-03T00:02:05;98967.16;;;22.71;46.70
47280;BME280;34064;44.942;0.008;2022-07-03T00:04:31;98962.13;;;22.68;46.75
47280;BME280;34064;44.942;0.008;2022-07-03T00:06:58;98955.22;;;22.66;46.59
47280;BME280;34064;44.942;0.008;2022-07-03T00:09:24;98957.06;;;22.65;46.68
47280;BME280;34064;44.942;0.008;2022-07-03T00:11:50;98961.22;;;22.61;46.98
47280;BME280;34064;44.942;0.008;2022-07-03T00:14:17;98961.97;;;22.55;46.50
47280;BME280;34064;44.942;0.008;2022-07-03T00:16:43;98959.00;;;22.50;46.62
47280;BME280;34064;44.942;0.008;2022-07-03T00:19:09;98966.03;;;22.44;46.79
47280;BME280;34064;44.942;0.008;2022-07-03T00:22:18;98961.16;;;22.39;46.73
47280;BME280;34064;44.942;0.008;2022-07-03T00:24:31;98961.34;;;22.38;46.83
47280;BME280;34064;44.942;0.008;2022-07-03T00:26:58;98964.63;;;22.33;47.15
47280;BME280;34064;44.942;0.008;2022-07-03T00:29:27;98964.13;;;22.29;47.29
47280;BME280;34064;44.942;0.008;2022-07-03T00:31:55;98971.16;;;22.24;47.17
47280;BME280;34064;44.942;0.008;2022-07-03T00:34:22;98972.31;;;22.15;47.66
47280;BME280;34064;44.942;0.008;2022-07-03T00:36:51;98973.22;;;22.07;47.65
47280;BME280;34064;44.942;0.008;2022-07-03T00:39:20;98973.81;;;22.02;47.51
47280;BME280;34064;44.942;0.008;2022-07-03T00:41:46;98959.63;;;22.00;47.88
47280;BME280;34064;44.942;0.008;2022-07-03T00:44:25;98964.00;;;22.01;47.65
47280;BME280;34064;44.942;0.008;2022-07-03T00:46:52;98958.97;;;21.98;47.87
47280;BME280;34064;44.942;0.008;2022-07-03T00:49:18;98956.66;;;21.95;48.21
47280;BME280;34064;44.942;0.008;2022-07-03T00:51:46;98958.69;;;21.93;47.67
47280;BME280;34064;44.942;0.008;2022-07-03T00:54:16;98948.25;;;21.90;48.26
47280;BME280;34064;44.942;0.008;2022-07-03T00:56:46;98943.03;;;21.88;47.93
47280;BME280;34064;44.942;0.008;2022-07-03T00:59:15;98947.78;;;21.86;48.06
47280;BME280;34064;44.942;0.008;2022-07-03T01:01:41;98940.25;;;21.81;48.01
47280;BME280;34064;44.942;0.008;2022-07-03T01:07:23;98947.53;;;21.66;48.23
47280;BME280;34064;44.942;0.008;2022-07-03T01:12:27;98951.59;;;21.62;48.09
47280;BME280;34064;44.942;0.008;2022-07-03T01:15:04;98947.59;;;21.58;47.94
47280;BME280;34064;44.942;0.008;2022-07-03T01:17:34;98954.72;;;21.50;48.58
47280;BME280;34064;44.942;0.008;2022-07-03T01:20:04;98949.72;;;21.47;48.51
47280;BME280;34064;44.942;0.008;2022-07-03T01:27:27;98956.38;;;21.37;48.77
47280;BME280;34064;44.942;0.008;2022-07-03T01:32:27;98957.31;;;21.29;48.38
47280;BME280;34064;44.942;0.008;2022-07-03T01:34:59;98959.38;;;21.27;48.69
47280;BME280;34064;44.942;0.008;2022-07-03T01:37:27;98960.56;;;21.24;48.76
47280;BME280;34064;44.942;0.008;2022-07-03T01:39:53;98958.03;;;21.23;48.73
47280;BME280;34064;44.942;0.008;2022-07-03T01:42:23;98948.44;;;21.20;48.84
47280;BME280;34064;44.942;0.008;2022-07-03T01:44:52;98947.78;;;21.18;49.13
47280;BME280;34064;44.942;0.008;2022-07-03T01:47:19;98956.97;;;21.09;49.49
47280;BME280;34064;44.942;0.008;2022-07-03T01:49:46;98960.78;;;20.99;49.90
47280;BME280;34064;44.942;0.008;2022-07-03T01:52:14;98955.91;;;20.95;49.49
47280;BME280;34064;44.942;0.008;2022-07-03T01:54:41;98962.72;;;20.91;49.52
47280;BME280;34064;44.942;0.008;2022-07-03T01:57:08;98951.25;;;20.88;50.30
47280;BME280;34064;44.942;0.008;2022-07-03T01:59:34;98948.06;;;20.85;50.12
47280;BME280;34064;44.942;0.008;2022-07-03T02:02:08;98943.22;;;20.80;50.06
47280;BME280;34064;44.942;0.008;2022-07-03T02:04:44;98947.94;;;20.78;50.48
47280;BME280;34064;44.942;0.008;2022-07-03T02:07:20;98940.38;;;20.73;50.50
47280;BME280;34064;44.942;0.008;2022-07-03T02:09:53;98940.56;;;20.72;50.39
47280;BME280;34064;44.942;0.008;2022-07-03T02:12:27;98947.13;;;20.69;50.26
47280;BME280;34064;44.942;0.008;2022-07-03T02:14:58;98940.91;;;20.69;50.34
47280;BME280;34064;44.942;0.008;2022-07-03T02:17:27;98942.09;;;20.66;50.45
47280;BME280;34064;44.942;0.008;2022-07-03T02:20:00;98944.13;;;20.64;50.37
47280;BME280;34064;44.942;0.008;2022-07-03T02:22:31;98946.00;;;20.64;50.47
47280;BME280;34064;44.942;0.008;2022-07-03T02:25:06;98949.72;;;20.63;50.53
47280;BME280;34064;44.942;0.008;2022-07-03T02:27:40;98945.16;;;20.63;50.51
47280;BME280;34064;44.942;0.008;2022-07-03T02:30:08;98945.34;;;20.62;51.00
47280;BME280;34064;44.942;0.008;2022-07-03T02:32:39;98949.88;;;20.61;50.86
47280;BME280;34064;44.942;0.008;2022-07-03T02:35:07;98960.56;;;20.54;51.58
47280;BME280;34064;44.942;0.008;2022-07-03T02:37:56;98973.56;;;20.51;51.15
47280;BME280;34064;44.942;0.008;2022-07-03T02:40:22;98978.66;;;20.46;50.88
47280;BME280;34064;44.942;0.008;2022-07-03T02:42:56;98973.44;;;20.44;51.25
47280;BME280;34064;44.942;0.008;2022-07-03T02:45:25;98957.91;;;20.46;51.00
47280;BME280;34064;44.942;0.008;2022-07-03T02:47:57;98969.56;;;20.47;51.16
47280;BME280;34064;44.942;0.008;2022-07-03T02:50:28;98962.81;;;20.42;51.65
47280;BME280;34064;44.942;0.008;2022-07-03T02:53:04;98964.84;;;20.40;51.45
47280;BME280;34064;44.942;0.008;2022-07-03T02:55:38;98962.69;;;20.36;51.19
47280;BME280;34064;44.942;0.008;2022-07-03T03:00:35;98973.84;;;20.33;51.83
47280;BME280;34064;44.942;0.008;2022-07-03T03:03:03;98970.47;;;20.31;51.79
47280;BME280;34064;44.942;0.008;2022-07-03T03:10:38;98977.88;;;20.29;52.02
47280;BME280;34064;44.942;0.008;2022-07-03T03:13:08;98975.38;;;20.27;51.48
47280;BME280;34064;44.942;0.008;2022-07-03T03:15:35;98974.53;;;20.26;51.68
47280;BME280;34064;44.942;0.008;2022-07-03T03:18:05;98979.09;;;20.26;51.94
47280;BME280;34064;44.942;0.008;2022-07-03T03:20:34;98977.22;;;20.26;51.69
47280;BME280;34064;44.942;0.008;2022-07-03T03:25:27;98979.28;;;20.24;51.64
47280;BME280;34064;44.942;0.008;2022-07-03T03:27:53;98979.28;;;20.24;52.00
47280;BME280;34064;44.942;0.008;2022-07-03T03:30:19;98974.03;;;20.23;52.22
47280;BME280;34064;44.942;0.008;2022-07-03T03:32:46;98971.72;;;20.20;52.35
47280;BME280;34064;44.942;0.008;2022-07-03T03:35:12;98984.53;;;20.18;52.29
47280;BME280;34064;44.942;0.008;2022-07-03T03:37:38;98972.88;;;20.17;51.84
47280;BME280;34064;44.942;0.008;2022-07-03T03:40:05;98972.88;;;20.17;52.39
47280;BME280;34064;44.942;0.008;2022-07-03T03:42:31;98980.63;;;20.20;51.95
47280;BME280;34064;44.942;0.008;2022-07-03T03:44:57;98966.13;;;20.21;51.99
47280;BME280;34064;44.942;0.008;2022-07-03T03:47:24;98966.97;;;20.22;52.09
47280;BME280;34064;44.942;0.008;2022-07-03T03:49:50;98968.16;;;20.19;52.19
47280;BME280;34064;44.942;0.008;2022-07-03T03:52:17;98957.75;;;20.16;52.56
47280;BME280;34064;44.942;0.008;2022-07-03T03:54:43;98954.38;;;20.14;52.35
47280;BME280;34064;44.942;0.008;2022-07-03T03:57:19;98945.63;;;20.12;52.17
47280;BME280;34064;44.942;0.008;2022-07-03T03:59:46;98944.13;;;20.09;52.22
47280;BME280;34064;44.942;0.008;2022-07-03T04:02:12;98944.66;;;20.05;52.25
47280;BME280;34064;44.942;0.008;2022-07-03T04:04:39;98946.00;;;20.01;52.55
47280;BME280;34064;44.942;0.008;2022-07-03T04:07:05;98945.31;;;19.99;52.29
47280;BME280;34064;44.942;0.008;2022-07-03T04:09:31;98940.97;;;19.98;52.70
47280;BME280;34064;44.942;0.008;2022-07-03T04:11:58;98952.78;;;19.97;52.43
47280;BME280;34064;44.942;0.008;2022-07-03T04:14:25;98946.72;;;19.94;52.50
47280;BME280;34064;44.942;0.008;2022-07-03T04:16:51;98952.28;;;19.93;52.75
47280;BME280;34064;44.942;0.008;2022-07-03T04:19:17;98950.94;;;19.89;52.69
47280;BME280;34064;44.942;0.008;2022-07-03T04:21:43;98961.22;;;19.85;53.12
47280;BME280;34064;44.942;0.008;2022-07-03T04:24:10;98965.91;;;19.83;52.82
47280;BME280;34064;44.942;0.008;2022-07-03T04:26:36;98958.16;;;19.80;52.91
47280;BME280;34064;44.942;0.008;2022-07-03T04:29:02;98959.03;;;19.80;52.73
47280;BME280;34064;44.942;0.008;2022-07-03T04:31:28;98950.94;;;19.80;52.69
47280;BME280;34064;44.942;0.008;2022-07-03T04:33:54;98953.44;;;19.82;53.06
47280;BME280;34064;44.942;0.008;2022-07-03T04:36:20;98952.13;;;19.86;52.75
47280;BME280;34064;44.942;0.008;2022-07-03T04:38:47;98954.66;;;19.88;52.92
47280;BME280;34064;44.942;0.008;2022-07-03T04:41:13;98960.03;;;19.88;53.16
47280;BME280;34064;44.942;0.008;2022-07-03T04:43:39;98954.66;;;19.88;52.66
47280;BME280;34064;44.942;0.008;2022-07-03T04:46:05;98958.53;;;19.85;53.04
47280;BME280;34064;44.942;0.008;2022-07-03T04:48:31;98960.03;;;19.88;52.78
47280;BME280;34064;44.942;0.008;2022-07-03T04:50:58;98964.59;;;19.87;53.20
47280;BME280;34064;44.942;0.008;2022-07-03T04:53:24;98966.28;;;19.88;53.05
47280;BME280;34064;44.942;0.008;2022-07-03T04:55:50;98967.59;;;19.92;52.92
47280;BME280;34064;44.942;0.008;2022-07-03T04:58:17;98956.47;;;19.95;52.69
47280;BME280;34064;44.942;0.008;2022-07-03T05:00:44;98940.78;;;19.99;52.67
47280;BME280;34064;44.942;0.008;2022-07-03T05:03:11;98941.81;;;19.98;52.94
47280;BME280;34064;44.942;0.008;2022-07-03T05:05:37;98951.75;;;19.98;53.11
47280;BME280;34064;44.942;0.008;2022-07-03T05:08:04;98947.00;;;20.00;52.88
47280;BME280;34064;44.942;0.008;2022-07-03T05:10:33;98953.25;;;20.00;53.02
47280;BME280;34064;44.942;0.008;2022-07-03T05:13:00;98954.09;;;20.01;52.77
47280;BME280;34064;44.942;0.008;2022-07-03T05:15:27;98965.06;;;19.99;52.87
47280;BME280;34064;44.942;0.008;2022-07-03T05:17:53;98958.66;;;20.00;53.19
47280;BME280;34064;44.942;0.008;2022-07-03T05:20:19;98954.09;;;20.01;53.15
47280;BME280;34064;44.942;0.008;2022-07-03T05:22:54;98963.88;;;20.02;52.91
47280;BME280;34064;44.942;0.008;2022-07-03T05:25:21;98965.06;;;19.99;53.46
47280;BME280;34064;44.942;0.008;2022-07-03T05:27:47;98959.84;;;19.98;53.34
47280;BME280;34064;44.942;0.008;2022-07-03T05:30:16;98957.78;;;20.00;53.36
47280;BME280;34064;44.942;0.008;2022-07-03T05:32:42;98964.34;;;20.05;53.37
47280;BME280;34064;44.942;0.008;2022-07-03T05:35:09;98965.50;;;20.11;53.17
47280;BME280;34064;44.942;0.008;2022-07-03T05:37:35;98953.19;;;20.17;53.07
47280;BME280;34064;44.942;0.008;2022-07-03T05:40:01;98960.75;;;20.21;53.23
47280;BME280;34064;44.942;0.008;2022-07-03T05:42:27;98959.91;;;20.21;53.38
47280;BME280;34064;44.942;0.008;2022-07-03T05:44:53;98960.22;;;20.26;53.29
47280;BME280;34064;44.942;0.008;2022-07-03T05:47:21;98952.25;;;20.33;53.67
47280;BME280;34064;44.942;0.008;2022-07-03T05:49:53;98960.66;;;20.38;53.57
47280;BME280;34064;44.942;0.008;2022-07-03T05:52:21;98939.53;;;20.41;53.49
47280;BME280;34064;44.942;0.008;2022-07-03T05:54:50;98952.88;;;20.43;53.19
47280;BME280;34064;44.942;0.008;2022-07-03T05:57:18;98949.47;;;20.49;53.25
47280;BME280;34064;44.942;0.008;2022-07-03T05:59:44;98938.25;;;20.61;53.45
47280;BME280;34064;44.942;0.008;2022-07-03T06:02:12;98940.28;;;20.58;53.08
47280;BME280;34064;44.942;0.008;2022-07-03T06:04:41;98939.94;;;20.62;53.42
47280;BME280;34064;44.942;0.008;2022-07-03T06:07:09;98940.19;;;20.75;53.08
47280;BME280;34064;44.942;0.008;2022-07-03T06:09:37;98938.16;;;20.77;53.38
47280;BME280;34064;44.942;0.008;2022-07-03T06:12:04;98933.25;;;20.81;53.26
47280;BME280;34064;44.942;0.008;2022-07-03T06:14:32;98934.38;;;20.86;53.34
47280;BME280;34064;44.942;0.008;2022-07-03T06:17:00;98935.53;;;20.92;53.37
47280;BME280;34064;44.942;0.008;2022-07-03T06:19:27;98942.47;;;20.86;53.20
47280;BME280;34064;44.942;0.008;2022-07-03T06:21:55;98935.41;;;20.85;53.14
47280;BME280;34064;44.942;0.008;2022-07-03T06:24:23;98943.22;;;20.80;53.25
47280;BME280;34064;44.942;0.008;2022-07-03T06:26:52;98945.53;;;20.83;53.55
47280;BME280;34064;44.942;0.008;2022-07-03T06:29:24;98947.22;;;20.84;53.13
47280;BME280;34064;44.942;0.008;2022-07-03T06:31:52;98954.97;;;20.87;53.01
47280;BME280;34064;44.942;0.008;2022-07-03T06:34:20;98948.19;;;20.92;53.08
47280;BME280;34064;44.942;0.008;2022-07-03T06:36:48;98950.63;;;21.01;52.75
47280;BME280;34064;44.942;0.008;2022-07-03T06:39:16;98944.59;;;21.14;52.51
47280;BME280;34064;44.942;0.008;2022-07-03T06:41:44;98945.09;;;21.18;52.59
47280;BME280;34064;44.942;0.008;2022-07-03T06:44:10;98948.44;;;21.20;52.44
47280;BME280;34064;44.942;0.008;2022-07-03T06:46:37;98943.03;;;21.20;52.67
47280;BME280;34064;44.942;0.008;2022-07-03T06:49:03;98948.63;;;21.18;52.56
47280;BME280;34064;44.942;0.008;2022-07-03T06:51:29;98952.63;;;21.23;52.61
47280;BME280;34064;44.942;0.008;2022-07-03T06:53:55;98937.78;;;21.42;52.46
47280;BME280;34064;44.942;0.008;2022-07-03T06:56:21;98936.22;;;21.47;52.19
47280;BME280;34064;44.942;0.008;2022-07-03T06:58:47;98938.97;;;21.54;52.07
47280;BME280;34064;44.942;0.008;2022-07-03T07:01:14;98944.03;;;21.57;52.11
47280;BME280;34064;44.942;0.008;2022-07-03T07:03:40;98944.88;;;21.58;52.17
47280;BME280;34064;44.942;0.008;2022-07-03T07:06:06;98939.13;;;21.61;52.10
47280;BME280;34064;44.942;0.008;2022-07-03T07:08:32;98953.53;;;21.53;52.09
47280;BME280;34064;44.942;0.008;2022-07-03T07:10:58;98948.25;;;21.60;52.41
47280;BME280;34064;44.942;0.008;2022-07-03T07:13:25;98944.72;;;21.74;51.82
47280;BME280;34064;44.942;0.008;2022-07-03T07:15:51;98947.13;;;21.84;51.76
47280;BME280;34064;44.942;0.008;2022-07-03T07:18:17;98935.28;;;22.00;51.75
47280;BME280;34064;44.942;0.008;2022-07-03T07:20:43;98934.81;;;22.11;51.37
47280;BME280;34064;44.942;0.008;2022-07-03T07:23:09;98933.75;;;22.27;51.30
47280;BME280;34064;44.942;0.008;2022-07-03T07:25:36;98936.91;;;22.31;50.93
47280;BME280;34064;44.942;0.008;2022-07-03T07:28:02;98933.75;;;22.27;51.22
47280;BME280;34064;44.942;0.008;2022-07-03T07:30:28;98932.16;;;22.33;51.20
47280;BME280;34064;44.942;0.008;2022-07-03T07:32:54;98926.34;;;22.36;51.11
47280;BME280;34064;44.942;0.008;2022-07-03T07:35:21;98928.38;;;22.34;50.81
47280;BME280;34064;44.942;0.008;2022-07-03T07:37:47;98916.06;;;22.47;50.61
47280;BME280;34064;44.942;0.008;2022-07-03T07:40:14;98920.34;;;22.56;50.06
47280;BME280;34064;44.942;0.008;2022-07-03T07:42:40;98922.91;;;22.64;49.79
47280;BME280;34064;44.942;0.008;2022-07-03T07:45:09;98930.41;;;22.62;49.99
47280;BME280;34064;44.942;0.008;2022-07-03T07:47:35;98926.13;;;22.74;49.84
47280;BME280;34064;44.942;0.008;2022-07-03T07:50:02;98914.56;;;22.81;49.74
47280;BME280;34064;44.942;0.008;2022-07-03T07:52:28;98915.16;;;22.83;49.86
47280;BME280;34064;44.942;0.008;2022-07-03T07:54:54;98918.47;;;22.78;49.80
47280;BME280;34064;44.942;0.008;2022-07-03T07:57:20;98907.31;;;22.88;49.93
47280;BME280;34064;44.942;0.008;2022-07-03T07:59:47;98896.31;;;23.18;49.56
47280;BME280;34064;44.942;0.008;2022-07-03T08:02:13;98893.06;;;23.29;49.09
47280;BME280;34064;44.942;0.008;2022-07-03T08:04:57;98901.84;;;23.31;49.20
47280;BME280;34064;44.942;0.008;2022-07-03T08:07:42;98914.94;;;23.28;49.60
47280;BME280;34064;44.942;0.008;2022-07-03T08:10:08;98900.66;;;23.41;49.51
47280;BME280;34064;44.942;0.008;2022-07-03T08:12:34;98904.22;;;23.48;49.30
47280;BME280;34064;44.942;0.008;2022-07-03T08:15:01;98889.09;;;23.60;49.11
47280;BME280;34064;44.942;0.008;2022-07-03T08:17:27;98889.56;;;23.71;48.74
47280;BME280;34064;44.942;0.008;2022-07-03T08:19:53;98884.44;;;23.89;48.81
47280;BME280;34064;44.942;0.008;2022-07-03T08:22:19;98881.78;;;23.96;47.79
47280;BME280;34064;44.942;0.008;2022-07-03T08:24:45;98882.44;;;23.98;48.10
47280;BME280;34064;44.942;0.008;2022-07-03T08:27:12;98876.19;;;24.11;47.31
47280;BME280;34064;44.942;0.008;2022-07-03T08:29:38;98863.94;;;24.28;47.34
47280;BME280;34064;44.942;0.008;2022-07-03T08:32:04;98863.09;;;24.35;47.17
47280;BME280;34064;44.942;0.008;2022-07-03T08:34:30;98861.47;;;24.47;47.14
47280;BME280;34064;44.942;0.008;2022-07-03T08:36:57;98858.31;;;24.57;46.49
47280;BME280;34064;44.942;0.008;2022-07-03T08:39:24;98853.94;;;24.63;46.53
47280;BME280;34064;44.942;0.008;2022-07-03T08:41:55;98860.25;;;24.76;46.04
47280;BME280;34064;44.942;0.008;2022-07-03T08:44:25;98853.16;;;24.82;46.06
47280;BME280;34064;44.942;0.008;2022-07-03T08:46:53;98846.88;;;24.95;46.26
47280;BME280;34064;44.942;0.008;2022-07-03T08:49:23;98850.22;;;25.04;46.01
47280;BME280;34064;44.942;0.008;2022-07-03T08:51:53;98842.25;;;25.22;45.98
47280;BME280;34064;44.942;0.008;2022-07-03T08:54:21;98842.22;;;25.36;46.16
47280;BME280;34064;44.942;0.008;2022-07-03T08:56:49;98840.53;;;25.48;46.22
47280;BME280;34064;44.942;0.008;2022-07-03T08:59:18;98823.28;;;25.75;45.31
47280;BME280;34064;44.942;0.008;2022-07-03T09:01:47;98831.03;;;25.78;44.54
47280;BME280;34064;44.942;0.008;2022-07-03T09:04:13;98825.97;;;25.81;44.77
47280;BME280;34064;44.942;0.008;2022-07-03T09:06:41;98817.31;;;25.98;44.04
47280;BME280;34064;44.942;0.008;2022-07-03T09:09:10;98808.66;;;26.14;44.08
47280;BME280;34064;44.942;0.008;2022-07-03T09:11:37;98802.53;;;26.26;44.37
47280;BME280;34064;44.942;0.008;2022-07-03T09:14:04;98814.53;;;26.43;44.13
47280;BME280;34064;44.942;0.008;2022-07-03T09:16:35;98806.56;;;26.49;44.12
47280;BME280;34064;44.942;0.008;2022-07-03T09:19:02;98808.81;;;26.52;43.54
47280;BME280;34064;44.942;0.008;2022-07-03T09:21:36;98809.19;;;26.55;43.58
47280;BME280;34064;44.942;0.008;2022-07-03T09:24:04;98810.44;;;26.59;43.72
47280;BME280;34064;44.942;0.008;2022-07-03T09:26:31;98803.81;;;26.74;43.56
47280;BME280;34064;44.942;0.008;2022-07-03T09:28:58;98797.47;;;26.87;42.66
47280;BME280;34064;44.942;0.008;2022-07-03T09:31:25;98788.09;;;27.01;41.25
47280;BME280;34064;44.942;0.008;2022-07-03T09:42:05;98791.25;;;27.17;41.19
47280;BME280;34064;44.942;0.008;2022-07-03T09:44:36;98789.63;;;27.16;40.70
47280;BME280;34064;44.942;0.008;2022-07-03T09:55:00;98801.72;;;27.20;40.77
47280;BME280;34064;44.942;0.008;2022-07-03T09:57:28;98797.81;;;27.34;40.91
47280;BME280;34064;44.942;0.008;2022-07-03T10:00:16;98788.13;;;27.57;40.39
47280;BME280;34064;44.942;0.008;2022-07-03T10:03:00;98789.09;;;27.63;40.01
47280;BME280;34064;44.942;0.008;2022-07-03T10:05:32;98785.88;;;27.84;40.03
47280;BME280;34064;44.942;0.008;2022-07-03T10:08:02;98780.59;;;28.01;39.92
47280;BME280;34064;44.942;0.008;2022-07-03T10:10:29;98779.97;;;28.18;39.75
47280;BME280;34064;44.942;0.008;2022-07-03T10:12:56;98773.56;;;28.24;39.46
47280;BME280;34064;44.942;0.008;2022-07-03T10:15:23;98770.03;;;28.36;39.40
47280;BME280;34064;44.942;0.008;2022-07-03T10:17:51;98755.06;;;28.50;38.26
47280;BME280;34064;44.942;0.008;2022-07-03T10:20:22;98769.94;;;28.54;38.25
47280;BME280;34064;44.942;0.008;2022-07-03T10:22:49;98771.25;;;28.63;38.54
47280;BME280;34064;44.942;0.008;2022-07-03T10:25:19;98768.41;;;28.70;37.03
47280;BME280;34064;44.942;0.008;2022-07-03T10:27:48;98770.72;;;28.85;36.81
47280;BME280;34064;44.942;0.008;2022-07-03T10:30:20;98772.59;;;28.85;37.08
47280;BME280;34064;44.942;0.008;2022-07-03T10:32:50;98761.88;;;28.95;35.71
47280;BME280;34064;44.942;0.008;2022-07-03T10:35:21;98765.66;;;29.06;34.74
47280;BME280;34064;44.942;0.008;2022-07-03T10:40:23;98768.50;;;29.23;34.44
47280;BME280;34064;44.942;0.008;2022-07-03T10:43:14;98774.81;;;29.23;34.76
47280;BME280;34064;44.942;0.008;2022-07-03T10:46:10;98763.16;;;29.40;34.75
47280;BME280;34064;44.942;0.008;2022-07-03T10:48:58;98759.09;;;29.42;33.64
47280;BME280;34064;44.942;0.008;2022-07-03T10:51:23;98763.84;;;29.47;33.98
47280;BME280;34064;44.942;0.008;2022-07-03T10:54:05;98767.28;;;29.54;34.90
47280;BME280;34064;44.942;0.008;2022-07-03T10:59:22;98758.66;;;29.75;31.97
47280;BME280;34064;44.942;0.008;2022-07-03T11:01:49;98749.19;;;29.82;30.56
47280;BME280;34064;44.942;0.008;2022-07-03T11:07:23;98739.31;;;30.10;32.22
47280;BME280;34064;44.942;0.008;2022-07-03T11:15:26;98735.78;;;30.27;32.60
47280;BME280;34064;44.942;0.008;2022-07-03T11:18:08;98742.34;;;30.26;33.14
47280;BME280;34064;44.942;0.008;2022-07-03T11:20:45;98741.50;;;30.42;32.86
47280;BME280;34064;44.942;0.008;2022-07-03T11:23:15;98735.72;;;30.56;33.23
47280;BME280;34064;44.942;0.008;2022-07-03T11:25:46;98741.34;;;30.66;32.63
47280;BME280;34064;44.942;0.008;2022-07-03T11:33:46;98731.97;;;31.01;32.58
47280;BME280;34064;44.942;0.008;2022-07-03T11:38:46;98720.97;;;31.18;32.03
47280;BME280;34064;44.942;0.008;2022-07-03T11:41:14;98725.13;;;31.21;31.75
47280;BME280;34064;44.942;0.008;2022-07-03T11:43:54;98725.91;;;31.16;30.97
47280;BME280;34064;44.942;0.008;2022-07-03T11:46:25;98710.84;;;31.19;30.94
47280;BME280;34064;44.942;0.008;2022-07-03T11:49:06;98722.44;;;31.26;31.36
47280;BME280;34064;44.942;0.008;2022-07-03T11:51:34;98719.88;;;31.41;31.09
47280;BME280;34064;44.942;0.008;2022-07-03T11:54:02;98718.31;;;31.51;29.34
47280;BME280;34064;44.942;0.008;2022-07-03T11:56:28;98709.66;;;31.59;29.47
47280;BME280;34064;44.942;0.008;2022-07-03T11:58:56;98713.19;;;31.54;30.33
47280;BME280;34064;44.942;0.008;2022-07-03T12:04:09;98696.91;;;31.70;30.92
47280;BME280;34064;44.942;0.008;2022-07-03T12:06:49;98686.91;;;31.86;30.50
47280;BME280;34064;44.942;0.008;2022-07-03T12:09:18;98680.34;;;31.92;31.15
47280;BME280;34064;44.942;0.008;2022-07-03T12:17:05;98696.22;;;31.85;31.76
47280;BME280;34064;44.942;0.008;2022-07-03T12:19:36;98696.34;;;32.00;31.23
47280;BME280;34064;44.942;0.008;2022-07-03T12:22:04;98683.75;;;32.04;30.39
47280;BME280;34064;44.942;0.008;2022-07-03T12:24:36;98690.28;;;31.98;30.51
47280;BME280;34064;44.942;0.008;2022-07-03T12:27:04;98684.34;;;32.07;31.62
47280;BME280;34064;44.942;0.008;2022-07-03T12:29:43;98672.56;;;32.11;30.96
47280;BME280;34064;44.942;0.008;2022-07-03T12:35:29;98668.94;;;32.38;30.86
47280;BME280;34064;44.942;0.008;2022-07-03T12:41:04;98652.31;;;32.60;29.21
47280;BME280;34064;44.942;0.008;2022-07-03T12:43:41;98661.06;;;32.57;29.95
47280;BME280;34064;44.942;0.008;2022-07-03T12:49:27;98646.88;;;32.76;29.42
47280;BME280;34064;44.942;0.008;2022-07-03T12:52:11;98642.53;;;32.85;29.58
47280;BME280;34064;44.942;0.008;2022-07-03T12:55:11;98625.56;;;33.04;29.69
47280;BME280;34064;44.942;0.008;2022-07-03T12:58:14;98625.34;;;33.16;29.39
47280;BME280;34064;44.942;0.008;2022-07-03T13:01:03;98634.09;;;33.07;28.83
47280;BME280;34064;44.942;0.008;2022-07-03T13:03:38;98620.91;;;33.09;28.34
47280;BME280;34064;44.942;0.008;2022-07-03T13:06:17;98624.47;;;33.05;28.74
47280;BME280;34064;44.942;0.008;2022-07-03T13:10:14;98641.88;;;32.67;28.71
47280;BME280;34064;44.942;0.008;2022-07-03T13:12:56;98643.53;;;32.69;30.12
47280;BME280;34064;44.942;0.008;2022-07-03T13:15:38;98634.28;;;32.80;29.88
47280;BME280;34064;44.942;0.008;2022-07-03T13:18:12;98633.78;;;32.93;29.82
47280;BME280;34064;44.942;0.008;2022-07-03T13:20:48;98626.94;;;33.01;29.50
47280;BME280;34064;44.942;0.008;2022-07-03T13:23:19;98617.06;;;33.10;29.74
47280;BME280;34064;44.942;0.008;2022-07-03T13:25:46;98605.56;;;33.24;29.60
47280;BME280;34064;44.942;0.008;2022-07-03T13:28:25;98605.03;;;33.32;30.08
47280;BME280;34064;44.942;0.008;2022-07-03T13:31:03;98601.19;;;33.38;29.26
47280;BME280;34064;44.942;0.008;2022-07-03T13:33:37;98592.13;;;33.43;29.00
47280;BME280;34064;44.942;0.008;2022-07-03T13:36:17;98589.09;;;33.50;28.43
47280;BME280;34064;44.942;0.008;2022-07-03T13:38:46;98582.75;;;33.49;28.69
47280;BME280;34064;44.942;0.008;2022-07-03T13:41:16;98575.63;;;33.48;28.13
47280;BME280;34064;44.942;0.008;2022-07-03T13:43:45;98587.75;;;33.57;28.90
47280;BME280;34064;44.942;0.008;2022-07-03T13:46:20;98575.34;;;33.60;27.97
47280;BME280;34064;44.942;0.008;2022-07-03T13:48:50;98580.84;;;33.60;27.63
47280;BME280;34064;44.942;0.008;2022-07-03T13:51:18;98575.63;;;33.64;28.00
47280;BME280;34064;44.942;0.008;2022-07-03T13:53:46;98578.09;;;33.75;28.37
47280;BME280;34064;44.942;0.008;2022-07-03T13:56:18;98571.19;;;33.78;28.28
47280;BME280;34064;44.942;0.008;2022-07-03T13:58:46;98566.81;;;33.82;28.14
47280;BME280;34064;44.942;0.008;2022-07-03T14:01:13;98561.31;;;33.93;27.49
47280;BME280;34064;44.942;0.008;2022-07-03T14:03:39;98558.00;;;33.90;28.00
47280;BME280;34064;44.942;0.008;2022-07-03T14:06:07;98556.63;;;33.98;28.50
47280;BME280;34064;44.942;0.008;2022-07-03T14:08:37;98555.53;;;34.10;28.27
47280;BME280;34064;44.942;0.008;2022-07-03T14:11:06;98556.34;;;34.05;27.97
47280;BME280;34064;44.942;0.008;2022-07-03T14:13:35;98553.31;;;34.01;28.24
47280;BME280;34064;44.942;0.008;2022-07-03T14:16:03;98550.84;;;34.05;28.39
47280;BME280;34064;44.942;0.008;2022-07-03T14:18:31;98550.78;;;34.15;27.56
47280;BME280;34064;44.942;0.008;2022-07-03T14:21:00;98556.34;;;34.10;27.55
47280;BME280;34064;44.942;0.008;2022-07-03T14:23:27;98545.88;;;34.12;27.96
47280;BME280;34064;44.942;0.008;2022-07-03T14:25:55;98540.31;;;34.17;27.73
47280;BME280;34064;44.942;0.008;2022-07-03T14:28:24;98548.03;;;34.15;27.41
47280;BME280;34064;44.942;0.008;2022-07-03T14:31:11;98548.38;;;33.98;27.47
47280;BME280;34064;44.942;0.008;2022-07-03T14:33:44;98535.09;;;34.11;27.76